createdAt,value
2023-02-23T00:00:21.476Z,95298.06
2023-02-23T00:02:49.304Z,95293.72
2023-02-23T00:05:22.434Z,95289.81
2023-02-23T00:07:49.010Z,95295.50
2023-02-23T00:10:15.582Z,95293.38
2023-02-23T00:13:02.225Z,95293.66
2023-02-23T00:15:29.007Z,95291.94
2023-02-23T00:18:02.857Z,95289.53
2023-02-23T00:20:29.321Z,95288.34
2023-02-23T00:22:58.526Z,95281.03
2023-02-23T00:25:25.624Z,95284.88
2023-02-23T00:27:52.342Z,95289.53
2023-02-23T00:30:19.930Z,95287.59
2023-02-23T00:32:46.941Z,95290.06
2023-02-23T00:35:13.526Z,95281.94
2023-02-23T00:37:40.058Z,95280.38
2023-02-23T00:40:06.943Z,95276.34
2023-02-23T00:42:35.357Z,95273.09
2023-02-23T00:45:04.317Z,95278.63
2023-02-23T00:47:30.900Z,95277.59
2023-02-23T00:50:04.753Z,95275.59
2023-02-23T00:52:31.569Z,95273.94
2023-02-23T00:55:01.393Z,95275.09
2023-02-23T00:57:27.913Z,95274.09
2023-02-23T00:59:54.445Z,95274.34
2023-02-23T01:02:20.982Z,95271.06
2023-02-23T01:04:47.541Z,95268.81
2023-02-23T01:07:16.680Z,95263.25
2023-02-23T01:09:43.180Z,95265.28
2023-02-23T01:12:09.653Z,95265.03
2023-02-23T01:14:37.112Z,95265.41
2023-02-23T01:17:03.696Z,95266.41
2023-02-23T01:19:30.326Z,95267.09
2023-02-23T01:22:02.044Z,95268.03
2023-02-23T01:24:31.163Z,95257.00
2023-02-23T01:26:57.755Z,95257.78
2023-02-23T01:29:24.406Z,95257.16
2023-02-23T01:31:51.306Z,95260.63
2023-02-23T01:34:19.973Z,95257.63
2023-02-23T01:36:46.496Z,95262.63
2023-02-23T01:39:21.127Z,95248.28
2023-02-23T01:41:48.620Z,95251.56
2023-02-23T01:44:15.113Z,95248.66
2023-02-23T01:46:45.203Z,95249.94
2023-02-23T01:49:19.598Z,95254.44
2023-02-23T01:51:52.277Z,95252.81
2023-02-23T01:54:24.396Z,95260.09
2023-02-23T01:56:55.131Z,95250.75
2023-02-23T01:59:21.881Z,95245.47
2023-02-23T02:01:48.400Z,95249.09
2023-02-23T02:04:15.170Z,95238.38
2023-02-23T02:06:45.738Z,95241.88
2023-02-23T02:09:16.323Z,95241.47
2023-02-23T02:11:43.290Z,95241.63
2023-02-23T02:14:15.950Z,95232.91
2023-02-23T02:17:04.770Z,95236.91
2023-02-23T02:20:07.480Z,95234.41
2023-02-23T02:23:14.584Z,95229.56
2023-02-23T02:26:03.618Z,95223.16
2023-02-23T02:28:54.797Z,95221.28
2023-02-23T02:31:39.834Z,95222.41
2023-02-23T02:34:21.255Z,95216.41
2023-02-23T02:37:08.942Z,95210.72
2023-02-23T02:39:52.688Z,95210.78
2023-02-23T02:42:38.524Z,95205.59
2023-02-23T02:45:26.815Z,95206.09
2023-02-23T02:48:08.593Z,95203.97
2023-02-23T02:50:58.039Z,95208.47
2023-02-23T02:53:33.194Z,95208.47
2023-02-23T02:56:04.103Z,95205.13
2023-02-23T02:58:31.644Z,95199.00
2023-02-23T03:01:07.356Z,95202.59
2023-02-23T03:03:38.785Z,95198.09
2023-02-23T03:06:05.526Z,95202.94
2023-02-23T03:08:44.762Z,95204.78
2023-02-23T03:11:14.285Z,95206.97
2023-02-23T03:14:12.823Z,95209.44
2023-02-23T03:16:56.436Z,95205.56
2023-02-23T03:19:30.109Z,95211.22
2023-02-23T03:22:34.699Z,95207.19
2023-02-23T03:25:14.389Z,95207.13
2023-02-23T03:28:05.958Z,95213.88
2023-02-23T03:30:45.883Z,95205.41
2023-02-23T03:33:23.838Z,95215.06
2023-02-23T03:36:19.203Z,95204.31
2023-02-23T03:38:58.627Z,95208.84
2023-02-23T03:41:29.241Z,95204.47
2023-02-23T03:44:01.934Z,95207.31
2023-02-23T03:46:31.901Z,95203.13
2023-02-23T03:49:04.688Z,95202.44
2023-02-23T03:51:36.898Z,95199.91
2023-02-23T03:54:13.434Z,95203.44
2023-02-23T03:56:45.909Z,95200.09
2023-02-23T03:59:18.716Z,95201.69
2023-02-23T04:01:48.105Z,95200.94
2023-02-23T04:04:14.622Z,95202.59
2023-02-23T04:06:46.555Z,95197.66
2023-02-23T04:09:13.498Z,95201.69
2023-02-23T04:11:56.342Z,95196.28
2023-02-23T04:14:37.808Z,95197.59
2023-02-23T04:17:07.000Z,95199.22
2023-02-23T04:19:33.521Z,95206.38
2023-02-23T04:22:00.017Z,95198.47
2023-02-23T04:24:26.563Z,95205.78
2023-02-23T04:26:53.060Z,95210.31
2023-02-23T04:29:19.540Z,95208.97
2023-02-23T04:31:46.217Z,95213.03
2023-02-23T04:34:12.749Z,95200.22
2023-02-23T04:36:39.350Z,95206.31
2023-02-23T04:39:05.976Z,95208.41
2023-02-23T04:41:32.494Z,95212.03
2023-02-23T04:43:58.978Z,95210.31
2023-02-23T04:46:25.544Z,95211.59
2023-02-23T04:48:52.020Z,95212.31
2023-02-23T04:51:18.884Z,95220.16
2023-02-23T04:53:45.816Z,95209.13
2023-02-23T04:56:12.284Z,95212.66
2023-02-23T04:58:38.881Z,95210.47
2023-02-23T05:01:08.198Z,95207.19
2023-02-23T05:03:34.792Z,95205.88
2023-02-23T05:06:01.362Z,95209.31
2023-02-23T05:08:27.835Z,95203.06
2023-02-23T05:10:54.441Z,95205.06
2023-02-23T05:13:21.059Z,95200.78
2023-02-23T05:15:47.636Z,95205.97
2023-02-23T05:18:14.348Z,95205.56
2023-02-23T05:20:44.203Z,95205.75
2023-02-23T05:23:11.636Z,95208.84
2023-02-23T05:25:39.162Z,95213.09
2023-02-23T05:28:05.941Z,95209.66
2023-02-23T05:30:32.921Z,95209.66
2023-02-23T05:32:59.641Z,95205.19
2023-02-23T05:35:26.305Z,95197.09
2023-02-23T05:37:52.881Z,95202.31
2023-02-23T05:40:19.444Z,95195.78
2023-02-23T05:42:46.095Z,95193.06
2023-02-23T05:45:15.299Z,95190.06
2023-02-23T05:47:41.856Z,95198.56
2023-02-23T05:50:10.229Z,95200.16
2023-02-23T05:52:40.732Z,95189.88
2023-02-23T05:55:09.631Z,95188.97
2023-02-23T05:57:36.160Z,95191.13
2023-02-23T06:00:04.116Z,95191.75
2023-02-23T06:02:30.666Z,95198.47
2023-02-23T06:04:57.198Z,95191.13
2023-02-23T06:07:23.813Z,95200.88
2023-02-23T06:09:50.404Z,95198.88
2023-02-23T06:12:16.897Z,95196.97
2023-02-23T06:14:43.426Z,95204.16
2023-02-23T06:17:09.966Z,95202.94
2023-02-23T06:19:36.500Z,95211.31
2023-02-23T06:22:03.075Z,95211.66
2023-02-23T06:24:29.573Z,95204.16
2023-02-23T06:26:56.194Z,95208.31
2023-02-23T06:29:22.789Z,95211.59
2023-02-23T06:31:49.423Z,95215.88
2023-02-23T06:34:15.951Z,95210.97
2023-02-23T06:36:42.521Z,95215.50
2023-02-23T06:39:11.426Z,95213.22
2023-02-23T06:41:38.293Z,95210.66
2023-02-23T06:44:04.965Z,95215.38
2023-02-23T06:46:31.619Z,95216.28
2023-02-23T06:48:58.482Z,95221.66
2023-02-23T06:51:25.156Z,95219.38
2023-02-23T06:53:51.944Z,95224.84
2023-02-23T06:56:18.971Z,95222.66
2023-02-23T06:58:45.482Z,95220.53
2023-02-23T07:01:12.089Z,95218.50
2023-02-23T07:03:38.918Z,95224.34
2023-02-23T07:06:05.749Z,95226.00
2023-02-23T07:08:33.713Z,95223.16
2023-02-23T07:11:12.079Z,95232.09
2023-02-23T07:13:39.343Z,95230.00
2023-02-23T07:16:07.277Z,95230.06
2023-02-23T07:18:34.320Z,95222.63
2023-02-23T07:21:00.805Z,95234.97
2023-02-23T07:23:27.411Z,95238.75
2023-02-23T07:25:54.284Z,95236.22
2023-02-23T07:28:20.771Z,95239.78
2023-02-23T07:30:47.364Z,95244.13
2023-02-23T07:33:14.011Z,95248.16
2023-02-23T07:35:40.502Z,95245.75
2023-02-23T07:38:07.045Z,95239.38
2023-02-23T07:40:33.520Z,95240.63
2023-02-23T07:43:00.105Z,95242.66
2023-02-23T07:45:26.671Z,95241.03
2023-02-23T07:47:53.217Z,95241.53
2023-02-23T07:50:19.818Z,95234.47
2023-02-23T07:52:46.397Z,95235.09
2023-02-23T07:55:12.907Z,95237.13
2023-02-23T07:57:39.522Z,95236.25
2023-02-23T08:00:07.887Z,95234.28
2023-02-23T08:02:34.479Z,95235.13
2023-02-23T08:05:01.091Z,95230.91
2023-02-23T08:07:27.647Z,95239.63
2023-02-23T08:09:54.181Z,95234.97
2023-02-23T08:12:20.708Z,95236.72
2023-02-23T08:14:47.649Z,95236.97
2023-02-23T08:17:14.208Z,95240.09
2023-02-23T08:19:40.722Z,95235.88
2023-02-23T08:22:09.899Z,95235.31
2023-02-23T08:24:37.121Z,95238.56
2023-02-23T08:27:04.229Z,95237.16
2023-02-23T08:29:31.095Z,95239.44
2023-02-23T08:31:59.002Z,95239.50
2023-02-23T08:34:25.629Z,95236.31
2023-02-23T08:36:52.095Z,95231.38
2023-02-23T08:39:18.871Z,95230.16
2023-02-23T08:41:45.390Z,95235.78
2023-02-23T08:44:12.030Z,95234.06
2023-02-23T08:46:38.542Z,95231.44
2023-02-23T08:49:05.160Z,95233.56
2023-02-23T08:51:32.938Z,95229.41
2023-02-23T08:53:59.466Z,95225.97
2023-02-23T08:56:26.046Z,95225.22
2023-02-23T08:58:52.573Z,95223.66
2023-02-23T09:01:24.990Z,95222.44
2023-02-23T09:03:53.753Z,95225.03
2023-02-23T09:06:29.955Z,95216.69
2023-02-23T09:08:56.534Z,95213.72
2023-02-23T09:11:24.272Z,95214.94
2023-02-23T09:13:50.909Z,95217.03
2023-02-23T09:16:17.550Z,95221.56
2023-02-23T09:18:44.640Z,95218.78
2023-02-23T09:21:18.289Z,95215.56
2023-02-23T09:23:45.446Z,95225.38
2023-02-23T09:26:12.040Z,95224.34
2023-02-23T09:28:38.631Z,95226.66
2023-02-23T09:31:07.641Z,95223.06
2023-02-23T09:33:35.068Z,95221.03
2023-02-23T09:36:08.846Z,95228.78
2023-02-23T09:38:35.348Z,95221.44
2023-02-23T09:41:02.027Z,95223.38
2023-02-23T09:43:50.678Z,95234.66
2023-02-23T09:46:41.615Z,95235.31
2023-02-23T09:49:17.638Z,95232.25
2023-02-23T09:51:51.327Z,95231.69
2023-02-23T09:54:19.187Z,95234.09
2023-02-23T09:56:48.489Z,95241.66
2023-02-23T09:59:21.797Z,95244.59
2023-02-23T10:01:52.892Z,95236.16
2023-02-23T10:04:25.078Z,95245.09
2023-02-23T10:07:04.670Z,95247.94
2023-02-23T10:10:07.893Z,95238.00
2023-02-23T10:13:02.242Z,95228.47
2023-02-23T10:15:42.455Z,95230.56
2023-02-23T10:18:30.681Z,95224.00
2023-02-23T10:21:11.798Z,95223.22
2023-02-23T10:23:46.195Z,95222.19
2023-02-23T10:26:21.455Z,95220.38
2023-02-23T10:28:48.962Z,95216.31
2023-02-23T10:31:44.196Z,95224.84
2023-02-23T10:34:16.520Z,95217.50
2023-02-23T10:37:04.452Z,95223.25
2023-02-23T10:39:32.891Z,95221.25
2023-02-23T10:42:05.744Z,95214.78
2023-02-23T10:44:32.307Z,95219.28
2023-02-23T10:47:06.445Z,95219.66
2023-02-23T10:49:45.015Z,95222.56
2023-02-23T10:52:42.529Z,95225.41
2023-02-23T10:55:22.739Z,95220.09
2023-02-23T10:57:51.012Z,95219.25
2023-02-23T11:00:17.418Z,95224.38
2023-02-23T11:02:45.850Z,95215.22
2023-02-23T11:05:35.778Z,95212.28
2023-02-23T11:08:37.019Z,95214.78
2023-02-23T11:11:15.941Z,95209.09
2023-02-23T11:13:45.309Z,95211.03
2023-02-23T11:16:20.602Z,95210.72
2023-02-23T11:19:02.836Z,95207.91
2023-02-23T11:21:33.101Z,95208.19
2023-02-23T11:24:22.233Z,95204.22
2023-02-23T11:26:52.613Z,95205.28
2023-02-23T11:29:38.613Z,95198.03
2023-02-23T11:32:22.578Z,95195.81
2023-02-23T11:35:14.037Z,95193.56
2023-02-23T11:37:40.538Z,95194.06
2023-02-23T11:40:26.660Z,95189.75
2023-02-23T11:43:05.854Z,95191.84
2023-02-23T11:45:43.727Z,95186.56
2023-02-23T11:48:33.012Z,95185.97
2023-02-23T11:51:01.322Z,95178.22
2023-02-23T11:53:34.960Z,95173.81
2023-02-23T11:56:05.508Z,95172.97
2023-02-23T11:58:39.214Z,95173.13
2023-02-23T12:01:09.265Z,95174.88
2023-02-23T12:03:36.444Z,95172.84
2023-02-23T12:06:03.135Z,95162.25
2023-02-23T12:08:35.220Z,95165.47
2023-02-23T12:11:12.968Z,95167.16
2023-02-23T12:13:46.205Z,95161.84
2023-02-23T12:16:29.830Z,95157.38
2023-02-23T12:19:06.325Z,95155.34
2023-02-23T12:21:44.722Z,95151.41
2023-02-23T12:24:29.865Z,95152.06
2023-02-23T12:27:09.041Z,95149.19
2023-02-23T12:30:03.458Z,95148.38
2023-02-23T12:32:45.603Z,95146.72
2023-02-23T12:35:37.742Z,95142.66
2023-02-23T12:38:12.643Z,95138.13
2023-02-23T12:40:41.625Z,95143.88
2023-02-23T12:43:40.246Z,95134.69
2023-02-23T12:46:14.628Z,95138.13
2023-02-23T12:49:02.144Z,95144.38
2023-02-23T12:51:28.617Z,95142.22
2023-02-23T12:53:55.287Z,95134.97
2023-02-23T12:56:32.005Z,95133.50
2023-02-23T12:59:36.899Z,95126.81
2023-02-23T13:02:14.632Z,95125.88
2023-02-23T13:05:03.629Z,95124.72
2023-02-23T13:07:53.966Z,95119.06
2023-02-23T13:10:44.684Z,95116.28
2023-02-23T13:13:27.487Z,95113.81
2023-02-23T13:16:02.390Z,95115.16
2023-02-23T13:19:05.055Z,95121.84
2023-02-23T13:21:47.803Z,95121.00
2023-02-23T13:24:25.036Z,95122.91
2023-02-23T13:27:18.165Z,95104.78
2023-02-23T13:29:47.681Z,95110.09
2023-02-23T13:32:19.228Z,95113.66
2023-02-23T13:34:52.104Z,95113.41
2023-02-23T13:37:23.919Z,95119.00
2023-02-23T13:40:24.375Z,95112.97
2023-02-23T13:43:16.677Z,95118.28
2023-02-23T13:46:17.279Z,95118.88
2023-02-23T13:48:58.412Z,95118.28
2023-02-23T13:51:39.277Z,95121.53
2023-02-23T13:54:26.141Z,95123.97
2023-02-23T13:56:59.613Z,95118.22
2023-02-23T13:59:30.245Z,95115.16
2023-02-23T14:01:59.674Z,95116.94
2023-02-23T14:04:34.114Z,95103.31
2023-02-23T14:07:17.932Z,95108.66
2023-02-23T14:09:58.491Z,95107.31
2023-02-23T14:12:42.594Z,95105.84
2023-02-23T14:15:24.543Z,95104.34
2023-02-23T14:17:56.993Z,95092.56
2023-02-23T14:20:44.292Z,95096.09
2023-02-23T14:23:29.485Z,95096.44
2023-02-23T14:26:13.904Z,95093.16
2023-02-23T14:28:45.048Z,95090.22
2023-02-23T14:31:14.395Z,95092.59
2023-02-23T14:33:43.708Z,95091.13
2023-02-23T14:36:25.320Z,95089.78
2023-02-23T14:39:00.999Z,95085.38
2023-02-23T14:41:33.988Z,95087.84
2023-02-23T14:44:27.115Z,95079.84
2023-02-23T14:47:17.428Z,95083.81
2023-02-23T14:50:02.478Z,95068.94
2023-02-23T14:52:35.044Z,95069.41
2023-02-23T14:55:27.922Z,95069.59
2023-02-23T14:57:55.325Z,95073.81
2023-02-23T15:00:26.056Z,95058.03
2023-02-23T15:03:08.075Z,95065.03
2023-02-23T15:05:42.477Z,95063.06
2023-02-23T15:08:16.964Z,95064.31
2023-02-23T15:10:49.979Z,95069.41
2023-02-23T15:13:31.698Z,95065.56
2023-02-23T15:16:05.198Z,95067.09
2023-02-23T15:18:38.566Z,95069.34
2023-02-23T15:21:16.043Z,95062.81
2023-02-23T15:23:48.725Z,95056.41
2023-02-23T15:26:24.209Z,95059.13
2023-02-23T15:28:51.431Z,95056.53
2023-02-23T15:31:19.357Z,95049.28
2023-02-23T15:33:46.087Z,95051.16
2023-02-23T15:36:30.504Z,95063.13
2023-02-23T15:39:04.490Z,95063.03
2023-02-23T15:41:37.081Z,95054.78
2023-02-23T15:44:14.826Z,95055.66
2023-02-23T15:46:44.854Z,95047.59
2023-02-23T15:49:13.631Z,95047.94
2023-02-23T15:51:51.444Z,95050.34
2023-02-23T15:54:24.423Z,95043.22
2023-02-23T15:56:56.796Z,95044.91
2023-02-23T15:59:29.936Z,95052.56
2023-02-23T16:02:03.620Z,95044.56
2023-02-23T16:04:33.544Z,95047.13
2023-02-23T16:07:18.053Z,95044.56
2023-02-23T16:10:03.193Z,95046.81
2023-02-23T16:12:35.486Z,95044.75
2023-02-23T16:15:17.655Z,95053.38
2023-02-23T16:17:47.464Z,95048.28
2023-02-23T16:20:33.537Z,95052.16
2023-02-23T16:23:02.282Z,95054.75
2023-02-23T16:25:31.632Z,95063.50
2023-02-23T16:28:05.391Z,95062.47
2023-02-23T16:30:31.875Z,95058.03
2023-02-23T16:33:22.364Z,95055.75
2023-02-23T16:36:05.364Z,95051.22
2023-02-23T16:38:37.875Z,95056.69
2023-02-23T16:41:10.458Z,95055.63
2023-02-23T16:43:37.453Z,95054.22
2023-02-23T16:46:04.129Z,95058.69
2023-02-23T16:48:30.703Z,95050.19
2023-02-23T16:50:57.298Z,95046.56
2023-02-23T16:53:23.835Z,95057.66
2023-02-23T16:55:53.996Z,95048.78
2023-02-23T16:58:26.167Z,95045.72
2023-02-23T17:00:52.906Z,95047.63
2023-02-23T17:03:25.634Z,95049.28
2023-02-23T17:05:53.115Z,95054.25
2023-02-23T17:08:19.725Z,95054.69
2023-02-23T17:10:49.849Z,95059.19
2023-02-23T17:13:22.692Z,95071.06
2023-02-23T17:15:51.855Z,95056.44
2023-02-23T17:20:56.812Z,95069.13
2023-02-23T17:23:24.940Z,95072.81
2023-02-23T17:25:51.423Z,95071.16
2023-02-23T17:28:17.905Z,95086.09
2023-02-23T17:30:45.146Z,95080.97
2023-02-23T17:33:11.939Z,95094.06
2023-02-23T17:35:40.876Z,95085.53
2023-02-23T17:38:08.148Z,95090.41
2023-02-23T17:40:35.305Z,95088.81
2023-02-23T17:43:04.984Z,95091.91
2023-02-23T17:45:31.947Z,95103.13
2023-02-23T17:47:58.572Z,95106.41
2023-02-23T17:50:28.908Z,95104.78
2023-02-23T17:52:57.945Z,95106.00
2023-02-23T17:55:25.848Z,95107.25
2023-02-23T17:57:55.423Z,95102.78
2023-02-23T18:00:21.970Z,95105.22
2023-02-23T18:02:48.566Z,95109.31
2023-02-23T18:05:18.438Z,95110.06
2023-02-23T18:07:47.787Z,95111.72
2023-02-23T18:10:17.644Z,95111.69
2023-02-23T18:12:44.483Z,95117.41
2023-02-23T18:15:11.099Z,95118.63
2023-02-23T18:17:40.326Z,95124.53
2023-02-23T18:20:07.296Z,95117.00
2023-02-23T18:22:33.858Z,95117.00
2023-02-23T18:25:00.386Z,95119.84
2023-02-23T18:27:26.875Z,95126.75
2023-02-23T18:29:56.236Z,95129.63
2023-02-23T18:32:25.051Z,95124.72
2023-02-23T18:34:51.649Z,95123.09
2023-02-23T18:37:18.163Z,95122.09
2023-02-23T18:39:44.675Z,95113.75
2023-02-23T18:42:11.198Z,95115.38
2023-02-23T18:44:37.720Z,95114.59
2023-02-23T18:47:04.275Z,95112.13
2023-02-23T18:49:30.765Z,95121.53
2023-02-23T18:51:57.283Z,95111.34
2023-02-23T18:54:23.795Z,95116.00
2023-02-23T18:56:50.292Z,95113.38
2023-02-23T18:59:16.778Z,95115.59
2023-02-23T19:01:43.817Z,95117.03
2023-02-23T19:04:11.208Z,95119.47
2023-02-23T19:06:37.779Z,95117.41
2023-02-23T19:09:05.828Z,95117.84
2023-02-23T19:11:34.571Z,95120.28
2023-02-23T19:14:05.082Z,95121.91
2023-02-23T19:16:33.599Z,95126.38
2023-02-23T19:19:04.742Z,95122.09
2023-02-23T19:21:31.753Z,95117.44
2023-02-23T19:23:59.239Z,95119.69
2023-02-23T19:26:26.849Z,95116.00
2023-02-23T19:28:53.672Z,95111.31
2023-02-23T19:31:21.989Z,95106.03
2023-02-23T19:33:49.898Z,95111.31
2023-02-23T19:36:19.010Z,95113.75
2023-02-23T19:38:48.336Z,95106.03
2023-02-23T19:41:19.903Z,95101.97
2023-02-23T19:43:46.911Z,95105.63
2023-02-23T19:46:16.613Z,95099.31
2023-02-23T19:48:45.647Z,95105.41
2023-02-23T19:51:13.251Z,95110.09
2023-02-23T19:53:40.246Z,95104.81
2023-02-23T19:56:11.806Z,95101.94
2023-02-23T19:58:38.766Z,95098.25
2023-02-23T20:01:11.900Z,95104.41
2023-02-23T20:03:39.898Z,95099.50
2023-02-23T20:06:07.485Z,95094.63
2023-02-23T20:08:34.346Z,95099.13
2023-02-23T20:11:04.604Z,95105.03
2023-02-23T20:13:31.073Z,95098.91
2023-02-23T20:16:06.450Z,95104.00
2023-02-23T20:18:33.016Z,95093.81
2023-02-23T20:20:59.716Z,95102.78
2023-02-23T20:23:26.229Z,95101.56
2023-02-23T20:25:52.768Z,95092.16
2023-02-23T20:28:19.312Z,95091.34
2023-02-23T20:30:47.418Z,95094.59
2023-02-23T20:33:14.428Z,95098.25
2023-02-23T20:35:41.857Z,95099.09
2023-02-23T20:38:11.061Z,95098.25
2023-02-23T20:40:37.608Z,95091.13
2023-02-23T20:43:05.702Z,95103.75
2023-02-23T20:45:32.394Z,95102.72
2023-02-23T20:47:59.039Z,95110.44
2023-02-23T20:50:26.609Z,95108.41
2023-02-23T20:52:53.197Z,95105.16
2023-02-23T20:55:19.673Z,95101.91
2023-02-23T20:57:48.157Z,95099.25
2023-02-23T21:00:17.275Z,95105.16
2023-02-23T21:02:43.975Z,95101.91
2023-02-23T21:05:10.477Z,95089.06
2023-02-23T21:07:37.103Z,95098.47
2023-02-23T21:10:09.096Z,95105.16
2023-02-23T21:12:35.682Z,95106.81
2023-02-23T21:15:02.893Z,95107.19
2023-02-23T21:17:31.995Z,95101.50
2023-02-23T21:19:58.542Z,95098.25
2023-02-23T21:22:25.187Z,95110.06
2023-02-23T21:24:51.759Z,95102.72
2023-02-23T21:27:18.438Z,95106.38
2023-02-23T21:29:45.560Z,95106.16
2023-02-23T21:32:13.751Z,95105.56
2023-02-23T21:34:41.035Z,95102.31
2023-02-23T21:37:07.556Z,95097.63
2023-02-23T21:39:34.177Z,95094.59
2023-02-23T21:42:00.886Z,95094.97
2023-02-23T21:44:27.542Z,95097.19
2023-02-23T21:46:54.026Z,95091.25
2023-02-23T21:49:20.524Z,95101.00
2023-02-23T21:51:47.049Z,95096.94
2023-02-23T21:54:13.736Z,95096.28
2023-02-23T21:56:40.208Z,95092.00
2023-02-23T21:59:07.218Z,95087.69
2023-02-23T22:01:36.956Z,95087.88
2023-02-23T22:04:05.860Z,95094.75
2023-02-23T22:06:38.445Z,95091.47
2023-02-23T22:09:06.708Z,95093.50
2023-02-23T22:11:33.208Z,95090.22
2023-02-23T22:14:00.336Z,95094.69
2023-02-23T22:16:30.457Z,95093.03
2023-02-23T22:18:57.813Z,95093.03
2023-02-23T22:21:24.351Z,95087.78
2023-02-23T22:23:52.127Z,95089.22
2023-02-23T22:26:18.592Z,95089.56
2023-02-23T22:28:45.074Z,95090.59
2023-02-23T22:31:13.699Z,95092.25
2023-02-23T22:33:42.825Z,95090.63
2023-02-23T22:36:12.112Z,95086.34
2023-02-23T22:38:40.965Z,95092.66
2023-02-23T22:41:08.407Z,95091.00
2023-02-23T22:43:34.955Z,95088.91
2023-02-23T22:46:01.463Z,95086.50
2023-02-23T22:48:27.981Z,95089.97
2023-02-23T22:50:58.405Z,95093.44
2023-02-23T22:53:26.019Z,95091.41
2023-02-23T22:55:55.155Z,95092.22
2023-02-23T22:58:25.773Z,95097.50
2023-02-23T23:00:53.386Z,95089.94
2023-02-23T23:03:19.950Z,95096.63
2023-02-23T23:05:48.972Z,95082.41
2023-02-23T23:08:15.591Z,95082.81
2023-02-23T23:10:42.085Z,95079.31
2023-02-23T23:13:08.747Z,95078.34
2023-02-23T23:15:35.294Z,95082.44
2023-02-23T23:18:01.771Z,95078.34
2023-02-23T23:20:32.470Z,95078.78
2023-02-23T23:22:58.976Z,95076.50
2023-02-23T23:25:25.884Z,95080.78
2023-02-23T23:27:53.275Z,95072.63
2023-02-23T23:30:20.892Z,95068.00
2023-02-23T23:32:47.570Z,95063.66
2023-02-23T23:35:14.215Z,95062.50
2023-02-23T23:37:40.790Z,95056.06
2023-02-23T23:40:11.397Z,95048.25
2023-02-23T23:42:37.978Z,95051.03
2023-02-23T23:45:04.932Z,95055.19
2023-02-23T23:47:31.402Z,95060.72
2023-02-23T23:49:57.896Z,95054.91
2023-02-23T23:52:24.434Z,95061.06
2023-02-23T23:54:50.979Z,95057.69
2023-02-23T23:57:17.470Z,95049.34
2023-02-23T23:59:43.974Z,95051.78
